createdAt,value
2023-03-05T00:04:59.051Z,94322.69
2023-03-05T00:10:02.019Z,94318.50
2023-03-05T00:15:04.154Z,94318.28
2023-03-05T00:20:07.016Z,94322.31
2023-03-05T00:25:09.966Z,94315.00
2023-03-05T00:30:13.903Z,94318.47
2023-03-05T00:35:15.780Z,94326.47
2023-03-05T00:40:18.225Z,94327.63
2023-03-05T00:45:20.238Z,94322.38
2023-03-05T00:50:22.255Z,94322.59
2023-03-05T00:55:24.244Z,94323.50
2023-03-05T01:00:26.298Z,94320.13
2023-03-05T01:05:28.474Z,94330.00
2023-03-05T01:10:30.502Z,94330.06
2023-03-05T01:15:32.416Z,94338.06
2023-03-05T01:20:34.452Z,94334.19
2023-03-05T01:25:36.554Z,94333.94
2023-03-05T01:30:38.520Z,94337.09
2023-03-05T01:35:40.704Z,94336.59
2023-03-05T01:40:43.717Z,94332.91
2023-03-05T01:46:13.577Z,94318.41
2023-03-05T01:51:16.517Z,94322.38
2023-03-05T01:56:18.533Z,94319.28
2023-03-05T02:01:20.717Z,94310.88
2023-03-05T02:06:22.695Z,94303.78
2023-03-05T02:11:24.723Z,94285.22
2023-03-05T02:16:26.880Z,94283.97
2023-03-05T02:21:37.085Z,94282.75
2023-03-05T02:26:39.568Z,94285.91
2023-03-05T02:31:41.546Z,94273.06
2023-03-05T02:36:43.489Z,94274.41
2023-03-05T02:41:46.522Z,94271.53
2023-03-05T02:46:48.636Z,94275.50
2023-03-05T02:51:50.979Z,94281.88
2023-03-05T02:56:52.922Z,94269.19
2023-03-05T03:01:57.193Z,94268.16
2023-03-05T03:06:59.389Z,94264.19
2023-03-05T03:12:01.217Z,94263.38
2023-03-05T03:17:03.191Z,94252.06
2023-03-05T03:22:06.704Z,94252.13
2023-03-05T03:27:09.140Z,94252.16
2023-03-05T03:32:11.197Z,94246.66
2023-03-05T03:37:13.262Z,94252.72
2023-03-05T03:42:20.981Z,94256.97
2023-03-05T03:47:22.942Z,94253.06
2023-03-05T03:52:24.967Z,94251.22
2023-03-05T03:57:27.916Z,94239.91
2023-03-05T04:02:30.012Z,94249.41
2023-03-05T04:07:32.052Z,94244.69
2023-03-05T04:12:33.890Z,94247.03
2023-03-05T04:17:35.814Z,94240.97
2023-03-05T04:22:38.221Z,94245.22
2023-03-05T04:27:43.172Z,94249.97
2023-03-05T04:32:45.071Z,94246.81
2023-03-05T04:37:47.477Z,94241.56
2023-03-05T04:42:49.391Z,94241.56
2023-03-05T04:47:51.301Z,94241.56
2023-03-05T04:52:53.312Z,94231.09
2023-03-05T04:57:55.443Z,94234.50
2023-03-05T05:02:57.602Z,94232.94
2023-03-05T05:07:59.626Z,94222.69
2023-03-05T05:13:01.648Z,94220.34
2023-03-05T05:18:03.771Z,94212.47
2023-03-05T05:23:05.751Z,94219.84
2023-03-05T05:28:07.704Z,94221.41
2023-03-05T05:33:09.897Z,94218.00
2023-03-05T05:38:11.871Z,94220.88
2023-03-05T05:43:14.416Z,94224.31
2023-03-05T05:48:16.366Z,94214.56
2023-03-05T05:53:18.268Z,94216.44
2023-03-05T05:58:20.322Z,94216.41
2023-03-05T06:03:22.230Z,94217.47
2023-03-05T06:08:24.256Z,94221.16
2023-03-05T06:13:26.150Z,94225.09
2023-03-05T06:18:28.187Z,94224.81
2023-03-05T06:23:30.096Z,94222.47
2023-03-05T06:28:32.555Z,94229.03
2023-03-05T06:33:35.306Z,94231.91
2023-03-05T06:38:37.872Z,94226.94
2023-03-05T06:43:41.841Z,94220.34
2023-03-05T06:48:44.293Z,94201.97
2023-03-05T06:53:49.285Z,94197.75
2023-03-05T06:58:52.274Z,94207.47
2023-03-05T07:03:55.451Z,94199.59
2023-03-05T07:08:58.548Z,94205.59
2023-03-05T07:14:00.768Z,94205.88
2023-03-05T07:19:04.725Z,94198.75
2023-03-05T07:24:07.063Z,94197.16
2023-03-05T07:29:09.959Z,94198.47
2023-03-05T07:34:11.879Z,94188.69
2023-03-05T07:39:13.897Z,94187.38
2023-03-05T07:44:17.551Z,94192.81
2023-03-05T07:49:19.437Z,94194.63
2023-03-05T07:54:21.640Z,94197.19
2023-03-05T07:59:23.639Z,94199.28
2023-03-05T08:04:25.940Z,94196.03
2023-03-05T08:09:28.522Z,94198.09
2023-03-05T08:14:30.568Z,94211.69
2023-03-05T08:19:33.559Z,94212.34
2023-03-05T08:24:35.685Z,94201.97
2023-03-05T08:29:37.905Z,94198.50
2023-03-05T08:34:39.856Z,94208.63
2023-03-05T08:39:41.810Z,94196.00
2023-03-05T08:44:43.913Z,94198.22
2023-03-05T08:49:46.454Z,94197.97
2023-03-05T08:54:48.525Z,94203.66
2023-03-05T08:59:50.422Z,94201.41
2023-03-05T09:04:52.936Z,94206.00
2023-03-05T09:09:54.890Z,94209.53
2023-03-05T09:14:57.287Z,94208.81
2023-03-05T09:20:00.479Z,94212.59
2023-03-05T09:25:03.274Z,94224.41
2023-03-05T09:30:06.882Z,94224.34
2023-03-05T09:35:09.485Z,94222.88
2023-03-05T09:40:17.068Z,94239.47
2023-03-05T09:45:30.979Z,94247.31
2023-03-05T09:50:44.185Z,94233.97
2023-03-05T09:55:48.585Z,94218.38
2023-03-05T10:00:54.827Z,94217.53
2023-03-05T10:06:09.997Z,94200.13
2023-03-05T10:11:29.683Z,94210.72
2023-03-05T10:16:44.017Z,94189.16
2023-03-05T10:22:14.039Z,94158.44
2023-03-05T10:27:45.864Z,94145.13
2023-03-05T10:33:00.909Z,94142.41
2023-03-05T10:38:05.482Z,94141.75
2023-03-05T10:43:32.591Z,94147.00
2023-03-05T10:48:53.821Z,94141.38
2023-03-05T10:53:55.710Z,94136.34
2023-03-05T10:58:57.979Z,94132.53
2023-03-05T11:04:07.574Z,94130.59
2023-03-05T11:09:29.358Z,94133.00
2023-03-05T11:14:33.630Z,94131.06
2023-03-05T11:19:37.789Z,94122.84
2023-03-05T11:24:41.619Z,94128.06
2023-03-05T11:29:49.499Z,94129.53
2023-03-05T11:34:51.886Z,94125.50
2023-03-05T11:40:30.805Z,94124.94
2023-03-05T11:45:34.141Z,94121.03
2023-03-05T11:50:36.373Z,94113.72
2023-03-05T11:55:43.119Z,94099.94
2023-03-05T12:00:46.441Z,94094.47
2023-03-05T12:05:51.206Z,94084.63
2023-03-05T12:10:53.089Z,94081.00
2023-03-05T12:16:27.458Z,94074.75
2023-03-05T12:21:43.358Z,94061.56
2023-03-05T12:26:59.435Z,94061.06
2023-03-05T12:32:02.090Z,94037.81
2023-03-05T12:37:04.831Z,94031.84
2023-03-05T12:42:28.511Z,94023.06
2023-03-05T12:47:30.406Z,94018.53
2023-03-05T12:52:34.545Z,94006.31
2023-03-05T12:57:37.098Z,94000.31
2023-03-05T13:02:42.362Z,93995.91
2023-03-05T13:07:44.288Z,93998.00
2023-03-05T13:12:53.145Z,93989.00
2023-03-05T13:18:07.617Z,93980.28
2023-03-05T13:23:21.259Z,93969.56
2023-03-05T13:28:23.446Z,93976.84
2023-03-05T13:33:28.973Z,93964.69
2023-03-05T13:38:38.570Z,93958.25
2023-03-05T13:43:49.088Z,93962.22
2023-03-05T13:48:51.140Z,93946.72
2023-03-05T13:53:54.710Z,93943.81
2023-03-05T13:58:57.316Z,93934.44
2023-03-05T14:04:05.879Z,93944.13
2023-03-05T14:09:18.665Z,93948.75
2023-03-05T14:14:23.050Z,93931.66
2023-03-05T14:19:38.972Z,93931.53
2023-03-05T14:24:40.869Z,93924.50
2023-03-05T14:29:46.679Z,93923.94
2023-03-05T14:34:53.292Z,93907.53
2023-03-05T14:39:57.400Z,93902.41
2023-03-05T14:57:32.221Z,93892.53
2023-03-05T15:02:34.356Z,93890.72
2023-03-05T15:07:37.019Z,93893.41
2023-03-05T15:12:39.103Z,93897.31
2023-03-05T15:17:44.047Z,93908.53
2023-03-05T15:22:46.163Z,93905.22
2023-03-05T15:27:48.537Z,93908.31
2023-03-05T15:32:51.492Z,93905.78
2023-03-05T15:37:54.319Z,93897.50
2023-03-05T15:42:57.802Z,93898.06
2023-03-05T15:47:59.850Z,93910.06
2023-03-05T15:53:08.262Z,93906.28
2023-03-05T15:58:14.407Z,93909.84
2023-03-05T16:03:16.727Z,93885.66
2023-03-05T16:08:18.919Z,93897.88
2023-03-05T16:13:21.824Z,93888.19
2023-03-05T16:18:24.841Z,93886.66
2023-03-05T16:23:26.874Z,93870.25
2023-03-05T16:28:29.012Z,93865.75
2023-03-05T16:33:30.973Z,93850.75
2023-03-05T16:38:33.907Z,93853.72
2023-03-05T16:43:35.838Z,93849.81
2023-03-05T16:48:37.797Z,93837.50
2023-03-05T16:53:41.767Z,93848.56
2023-03-05T16:58:43.838Z,93839.19
2023-03-05T17:03:47.312Z,93844.00
2023-03-05T17:08:50.937Z,93851.00
2023-03-05T17:13:53.716Z,93836.66
2023-03-05T17:18:56.364Z,93834.63
2023-03-05T17:24:00.321Z,93829.47
2023-03-05T17:29:06.719Z,93838.38
2023-03-05T17:34:08.878Z,93845.72
2023-03-05T17:39:11.199Z,93846.31
2023-03-05T17:44:13.995Z,93838.31
2023-03-05T17:49:17.528Z,93853.16
2023-03-05T17:54:19.792Z,93842.09
2023-03-05T17:59:30.402Z,93853.16
2023-03-05T18:04:34.049Z,93849.53
2023-03-05T18:09:36.862Z,93858.13
2023-03-05T18:14:39.280Z,93856.09
2023-03-05T18:19:42.069Z,93853.88
2023-03-05T18:24:44.160Z,93851.84
2023-03-05T18:29:46.162Z,93850.88
2023-03-05T18:34:50.481Z,93853.34
2023-03-05T18:39:54.649Z,93861.19
2023-03-05T18:44:57.271Z,93860.81
2023-03-05T18:50:00.024Z,93865.63
2023-03-05T18:55:02.320Z,93862.19
2023-03-05T19:00:05.272Z,93851.38
2023-03-05T19:05:07.887Z,93841.81
2023-03-05T19:10:11.488Z,93850.34
2023-03-05T19:15:13.805Z,93854.22
2023-03-05T19:20:16.346Z,93856.38
2023-03-05T19:25:19.088Z,93863.72
2023-03-05T19:30:21.646Z,93859.03
2023-03-05T19:35:25.078Z,93860.22
2023-03-05T19:40:27.580Z,93842.53
2023-03-05T19:45:33.497Z,93851.63
2023-03-05T19:50:35.853Z,93858.41
2023-03-05T19:55:40.595Z,93847.38
2023-03-05T20:00:43.242Z,93846.88
2023-03-05T20:05:56.048Z,93847.66
2023-03-05T20:10:58.880Z,93831.53
2023-03-05T20:16:02.942Z,93846.69
2023-03-05T20:21:05.704Z,93838.56
2023-03-05T20:26:09.169Z,93837.13
2023-03-05T20:31:13.624Z,93835.53
2023-03-05T20:36:16.028Z,93842.91
2023-03-05T20:41:20.858Z,93818.72
2023-03-05T20:46:23.432Z,93832.72
2023-03-05T20:51:28.529Z,93828.03
2023-03-05T20:56:33.436Z,93815.84
2023-03-05T21:01:36.969Z,93803.97
2023-03-05T21:06:39.004Z,93816.50
2023-03-05T21:11:41.352Z,93816.69
2023-03-05T21:16:43.784Z,93812.88
2023-03-05T21:21:46.105Z,93812.97
2023-03-05T21:26:48.527Z,93818.06
2023-03-05T21:31:50.738Z,93812.78
2023-03-05T21:36:53.106Z,93810.13
2023-03-05T21:41:55.264Z,93800.16
2023-03-05T21:46:57.476Z,93812.41
2023-03-05T21:52:15.385Z,93802.13
2023-03-05T21:57:17.498Z,93803.50
2023-03-05T22:02:21.065Z,93815.66
2023-03-05T22:07:23.239Z,93815.94
2023-03-05T22:13:00.488Z,93806.94
2023-03-05T22:18:02.422Z,93812.50
2023-03-05T22:23:05.983Z,93790.97
2023-03-05T22:28:10.799Z,93760.50
2023-03-05T22:33:23.016Z,93808.09
2023-03-05T22:38:25.702Z,93806.03
2023-03-05T22:43:31.392Z,93798.88
2023-03-05T22:48:34.103Z,93788.59
2023-03-05T22:53:36.373Z,93788.09
2023-03-05T22:58:38.944Z,93779.94
2023-03-05T23:04:09.228Z,93768.19
2023-03-05T23:09:11.400Z,93782.66
2023-03-05T23:14:13.669Z,93793.84
2023-03-05T23:19:17.096Z,93791.09
2023-03-05T23:24:19.510Z,93780.34
2023-03-05T23:29:33.461Z,93781.88
2023-03-05T23:34:35.518Z,93775.06
2023-03-05T23:39:37.899Z,93745.06
2023-03-05T23:44:40.299Z,93769.16
2023-03-05T23:49:42.331Z,93772.59
2023-03-05T23:54:46.049Z,93763.09
2023-03-05T23:59:48.051Z,93755.97
